createdAt,value
2022-11-14T00:02:33.196Z,6.14
2022-11-14T00:05:42.303Z,6.15
2022-11-14T00:08:45.923Z,6.19
2022-11-14T00:11:49.509Z,6.21
2022-11-14T00:14:55.891Z,6.21
2022-11-14T00:17:59.527Z,6.23
2022-11-14T00:21:03.409Z,6.24
2022-11-14T00:24:07.358Z,6.33
2022-11-14T00:27:11.023Z,6.31
2022-11-14T00:30:16.756Z,6.30
2022-11-14T00:33:21.772Z,6.27
2022-11-14T00:36:25.346Z,6.28
2022-11-14T00:39:28.990Z,6.24
2022-11-14T00:42:32.661Z,6.32
2022-11-14T00:45:37.635Z,6.25
2022-11-14T00:48:41.246Z,6.23
2022-11-14T00:51:44.921Z,6.21
2022-11-14T00:54:48.437Z,6.24
2022-11-14T00:57:52.117Z,6.26
2022-11-14T01:00:57.170Z,6.25
2022-11-14T01:04:00.885Z,6.23
2022-11-14T01:07:04.578Z,6.26
2022-11-14T01:10:10.190Z,6.22
2022-11-14T01:13:14.762Z,6.26
2022-11-14T01:16:20.255Z,6.22
2022-11-14T01:19:23.830Z,6.24
2022-11-14T01:22:27.497Z,6.22
2022-11-14T01:25:31.090Z,6.20
2022-11-14T01:28:34.899Z,6.15
2022-11-14T01:31:39.805Z,6.16
2022-11-14T01:34:43.486Z,6.15
2022-11-14T01:37:47.076Z,6.17
2022-11-14T01:40:50.635Z,6.16
2022-11-14T01:43:54.231Z,6.16
2022-11-14T01:46:59.486Z,6.11
2022-11-14T01:50:07.111Z,6.10
2022-11-14T01:53:10.686Z,6.08
2022-11-14T01:56:20.471Z,6.09
2022-11-14T01:59:32.324Z,6.09
2022-11-14T02:02:39.635Z,6.07
2022-11-14T02:05:45.557Z,6.01
2022-11-14T02:08:52.264Z,6.07
2022-11-14T02:12:00.535Z,6.05
2022-11-14T02:15:05.065Z,6.11
2022-11-14T02:18:10.070Z,6.00
2022-11-14T02:21:15.127Z,5.99
2022-11-14T02:24:18.810Z,5.99
2022-11-14T02:27:22.609Z,5.98
2022-11-14T02:30:26.671Z,5.94
2022-11-14T02:33:30.263Z,5.92
2022-11-14T02:36:35.263Z,5.97
2022-11-14T02:39:39.119Z,5.96
2022-11-14T02:42:42.750Z,5.94
2022-11-14T02:45:46.293Z,5.96
2022-11-14T02:48:49.921Z,5.93
2022-11-14T02:51:54.838Z,5.90
2022-11-14T02:54:58.435Z,5.94
2022-11-14T02:58:02.074Z,5.95
2022-11-14T03:01:20.322Z,5.84
2022-11-14T03:04:24.954Z,5.92
2022-11-14T03:07:29.964Z,5.93
2022-11-14T03:10:33.609Z,5.87
2022-11-14T03:13:38.164Z,5.80
2022-11-14T03:16:41.815Z,5.80
2022-11-14T03:19:45.345Z,5.80
2022-11-14T03:22:50.370Z,5.76
2022-11-14T03:25:53.911Z,5.86
2022-11-14T03:28:57.504Z,5.84
2022-11-14T03:32:01.069Z,5.80
2022-11-14T03:35:05.099Z,5.76
2022-11-14T03:38:10.045Z,5.75
2022-11-14T03:41:13.717Z,5.76
2022-11-14T03:44:17.289Z,5.73
2022-11-14T03:47:21.059Z,5.76
2022-11-14T03:50:24.676Z,5.70
2022-11-14T03:53:29.699Z,5.66
2022-11-14T03:56:33.207Z,5.70
2022-11-14T03:59:36.825Z,5.66
2022-11-14T04:02:40.438Z,5.63
2022-11-14T04:05:46.317Z,5.62
2022-11-14T04:08:51.900Z,5.67
2022-11-14T04:11:55.596Z,5.64
2022-11-14T04:14:59.528Z,5.63
2022-11-14T04:18:03.084Z,5.65
2022-11-14T04:21:07.225Z,5.65
2022-11-14T04:24:12.262Z,5.62
2022-11-14T04:27:16.000Z,5.62
2022-11-14T04:30:19.827Z,5.60
2022-11-14T04:33:23.395Z,5.60
2022-11-14T04:36:27.050Z,5.66
2022-11-14T04:39:32.009Z,5.69
2022-11-14T04:42:35.582Z,5.60
2022-11-14T04:45:39.074Z,5.66
2022-11-14T04:48:42.733Z,5.63
2022-11-14T04:51:46.413Z,5.63
2022-11-14T04:54:51.319Z,5.64
2022-11-14T04:57:59.749Z,5.58
2022-11-14T05:01:09.786Z,5.61
2022-11-14T05:04:13.405Z,5.55
2022-11-14T05:07:17.246Z,5.60
2022-11-14T05:10:22.219Z,5.57
2022-11-14T05:13:26.088Z,5.56
2022-11-14T05:16:29.647Z,5.56
2022-11-14T05:19:33.276Z,5.54
2022-11-14T05:22:36.882Z,5.54
2022-11-14T05:25:41.890Z,5.48
2022-11-14T05:28:48.274Z,5.54
2022-11-14T05:31:51.869Z,5.54
2022-11-14T05:34:55.409Z,5.48
2022-11-14T05:38:01.848Z,5.45
2022-11-14T05:41:09.855Z,5.49
2022-11-14T05:44:13.511Z,5.48
2022-11-14T05:47:17.093Z,5.48
2022-11-14T05:50:20.896Z,5.47
2022-11-14T05:53:28.823Z,5.50
2022-11-14T05:56:33.882Z,5.45
2022-11-14T05:59:37.613Z,5.47
2022-11-14T06:02:41.296Z,5.44
2022-11-14T06:05:45.003Z,5.43
2022-11-14T06:08:49.386Z,5.47
2022-11-14T06:11:54.559Z,5.49
2022-11-14T06:14:58.208Z,5.41
2022-11-14T06:18:01.814Z,5.44
2022-11-14T06:21:08.282Z,5.52
2022-11-14T06:24:11.940Z,5.50
2022-11-14T06:27:16.962Z,5.50
2022-11-14T06:30:28.031Z,5.52
2022-11-14T06:33:36.059Z,5.52
2022-11-14T06:36:40.053Z,5.46
2022-11-14T06:39:43.966Z,5.44
2022-11-14T06:42:48.919Z,5.46
2022-11-14T06:45:55.846Z,5.42
2022-11-14T06:49:00.706Z,5.47
2022-11-14T06:52:04.483Z,5.52
2022-11-14T06:55:09.212Z,5.52
2022-11-14T06:58:14.152Z,5.49
2022-11-14T07:01:20.418Z,5.49
2022-11-14T07:04:24.128Z,5.46
2022-11-14T07:07:28.940Z,5.54
2022-11-14T07:10:32.609Z,5.46
2022-11-14T07:13:39.086Z,5.44
2022-11-14T07:16:42.895Z,5.53
2022-11-14T07:19:46.522Z,5.48
2022-11-14T07:22:50.178Z,5.55
2022-11-14T07:25:53.732Z,5.49
2022-11-14T07:29:02.563Z,5.50
2022-11-14T07:32:07.293Z,5.55
2022-11-14T07:35:11.041Z,5.52
2022-11-14T07:38:14.819Z,5.55
2022-11-14T07:41:19.117Z,5.52
2022-11-14T07:44:24.129Z,5.60
2022-11-14T07:47:28.726Z,5.52
2022-11-14T07:50:32.281Z,5.53
2022-11-14T07:53:36.469Z,5.50
2022-11-14T07:56:40.059Z,5.46
2022-11-14T07:59:45.246Z,5.45
2022-11-14T08:02:52.176Z,5.51
2022-11-14T08:06:02.710Z,5.57
2022-11-14T08:09:06.457Z,5.60
2022-11-14T08:12:10.213Z,5.65
2022-11-14T08:15:16.167Z,5.76
2022-11-14T08:18:20.260Z,5.82
2022-11-14T08:21:23.881Z,5.75
2022-11-14T08:24:27.490Z,5.82
2022-11-14T08:27:31.098Z,5.84
2022-11-14T08:30:36.718Z,5.88
2022-11-14T08:33:41.203Z,5.84
2022-11-14T08:36:44.754Z,5.93
2022-11-14T08:39:48.490Z,5.89
2022-11-14T08:42:52.614Z,5.95
2022-11-14T08:46:01.971Z,5.97
2022-11-14T08:49:05.861Z,6.01
2022-11-14T08:52:13.781Z,6.10
2022-11-14T08:55:20.834Z,6.00
2022-11-14T08:58:24.471Z,5.95
2022-11-14T09:01:29.357Z,5.83
2022-11-14T09:04:32.940Z,5.96
2022-11-14T09:07:36.761Z,5.92
2022-11-14T09:10:40.367Z,5.92
2022-11-14T09:13:43.939Z,5.98
2022-11-14T09:16:50.597Z,6.04
2022-11-14T09:19:54.200Z,5.97
2022-11-14T09:23:00.459Z,5.99
2022-11-14T09:26:06.442Z,5.97
2022-11-14T09:29:10.062Z,5.86
2022-11-14T09:32:15.187Z,5.93
2022-11-14T09:35:19.282Z,5.97
2022-11-14T09:38:22.840Z,5.92
2022-11-14T09:41:33.859Z,5.95
2022-11-14T09:44:57.772Z,6.05
2022-11-14T09:48:10.709Z,6.10
2022-11-14T09:51:20.731Z,5.91
2022-11-14T09:54:28.758Z,6.00
2022-11-14T09:57:32.726Z,6.13
2022-11-14T10:00:49.786Z,6.06
2022-11-14T10:04:09.365Z,6.24
2022-11-14T10:07:29.376Z,6.27
2022-11-14T10:10:51.730Z,6.34
2022-11-14T10:14:22.714Z,6.16
2022-11-14T10:17:52.155Z,6.10
2022-11-14T10:21:10.912Z,6.12
2022-11-14T10:24:42.063Z,6.08
2022-11-14T10:28:05.436Z,6.20
2022-11-14T10:31:26.683Z,6.06
2022-11-14T10:34:39.130Z,6.09
2022-11-14T10:37:59.551Z,6.18
2022-11-14T10:41:07.816Z,6.30
2022-11-14T10:44:19.786Z,6.21
2022-11-14T10:47:26.714Z,6.18
2022-11-14T10:50:44.056Z,6.23
2022-11-14T10:53:59.551Z,6.29
2022-11-14T10:57:04.048Z,6.29
2022-11-14T11:00:14.197Z,6.25
2022-11-14T11:03:17.810Z,6.16
2022-11-14T11:06:28.828Z,6.23
2022-11-14T11:09:52.515Z,6.19
2022-11-14T11:12:56.345Z,6.00
2022-11-14T11:16:03.412Z,6.09
2022-11-14T11:19:24.953Z,6.03
2022-11-14T11:22:36.502Z,6.09
2022-11-14T11:25:41.794Z,6.13
2022-11-14T11:28:45.420Z,6.13
2022-11-14T11:31:55.325Z,6.11
2022-11-14T11:35:02.553Z,6.09
2022-11-14T11:38:10.088Z,6.19
2022-11-14T11:42:06.243Z,6.06
2022-11-14T11:44:58.714Z,6.09
2022-11-14T11:48:15.112Z,6.09
2022-11-14T11:51:25.660Z,6.21
2022-11-14T11:54:45.385Z,6.27
2022-11-14T11:58:03.762Z,6.37
2022-11-14T12:01:10.828Z,6.17
2022-11-14T12:04:14.623Z,6.32
2022-11-14T12:07:23.341Z,6.27
2022-11-14T12:10:34.048Z,6.10
2022-11-14T12:14:17.818Z,6.17
2022-11-14T12:18:18.475Z,6.13
2022-11-14T12:21:58.951Z,6.02
2022-11-14T12:25:47.508Z,6.10
2022-11-14T12:29:22.659Z,6.15
2022-11-14T12:32:36.539Z,6.15
2022-11-14T12:35:52.987Z,6.32
2022-11-14T12:38:57.895Z,6.31
2022-11-14T12:42:07.747Z,6.40
2022-11-14T12:46:01.526Z,6.36
2022-11-14T12:49:38.712Z,6.46
2022-11-14T12:52:54.092Z,6.34
2022-11-14T12:56:19.438Z,6.47
2022-11-14T12:59:56.371Z,6.65
2022-11-14T13:03:37.866Z,6.47
2022-11-14T13:07:01.820Z,6.43
2022-11-14T13:10:15.678Z,6.40
2022-11-14T13:13:36.911Z,6.37
2022-11-14T13:16:58.079Z,6.46
2022-11-14T13:20:41.087Z,6.41
2022-11-14T13:24:02.963Z,6.38
2022-11-14T13:27:45.555Z,6.43
2022-11-14T13:31:20.770Z,6.42
2022-11-14T13:34:48.278Z,6.43
2022-11-14T13:38:18.406Z,6.57
2022-11-14T13:42:23.489Z,6.61
2022-11-14T13:45:58.332Z,6.62
2022-11-14T13:49:29.120Z,6.60
2022-11-14T13:52:36.714Z,6.72
2022-11-14T13:56:01.282Z,6.67
2022-11-14T13:59:49.549Z,6.65
2022-11-14T14:03:26.045Z,6.65
2022-11-14T14:06:48.285Z,6.70
2022-11-14T14:10:09.650Z,6.73
2022-11-14T14:13:33.718Z,6.70
2022-11-14T14:16:46.854Z,6.73
2022-11-14T14:20:10.353Z,6.70
2022-11-14T14:23:36.009Z,6.74
2022-11-14T14:26:59.751Z,6.68
2022-11-14T14:30:11.460Z,6.63
2022-11-14T14:33:17.883Z,6.58
2022-11-14T14:36:26.042Z,6.55
2022-11-14T14:39:30.630Z,6.52
2022-11-14T14:42:41.021Z,6.49
2022-11-14T14:45:54.086Z,6.47
2022-11-14T14:49:00.339Z,6.42
2022-11-14T14:52:20.907Z,6.36
2022-11-14T14:55:28.351Z,6.40
2022-11-14T14:58:34.915Z,6.33
2022-11-14T15:01:40.436Z,6.30
2022-11-14T15:04:44.273Z,6.26
2022-11-14T15:07:49.522Z,6.21
2022-11-14T15:10:56.287Z,6.16
2022-11-14T15:14:01.854Z,6.14
2022-11-14T15:17:08.830Z,6.08
2022-11-14T15:20:25.025Z,6.01
2022-11-14T15:23:28.634Z,5.98
2022-11-14T15:26:33.162Z,5.93
2022-11-14T15:29:37.010Z,5.87
2022-11-14T15:32:51.785Z,5.88
2022-11-14T15:36:12.901Z,5.81
2022-11-14T15:39:29.760Z,5.74
2022-11-14T15:42:33.335Z,5.72
2022-11-14T15:45:43.792Z,5.67
2022-11-14T15:48:48.875Z,5.61
2022-11-14T15:51:56.751Z,5.58
2022-11-14T15:55:00.495Z,5.56
2022-11-14T15:58:27.114Z,5.53
2022-11-14T16:01:28.824Z,5.48
2022-11-14T16:04:39.775Z,5.42
2022-11-14T16:07:46.955Z,5.40
2022-11-14T16:10:50.817Z,5.38
2022-11-14T16:13:54.524Z,5.43
2022-11-14T16:16:58.100Z,5.35
2022-11-14T16:20:06.282Z,5.33
2022-11-14T16:23:14.737Z,5.38
2022-11-14T16:26:18.508Z,5.35
2022-11-14T16:29:22.231Z,5.33
2022-11-14T16:32:28.321Z,5.36
2022-11-14T16:35:33.441Z,5.25
2022-11-14T16:38:37.143Z,5.27
2022-11-14T16:41:40.808Z,5.19
2022-11-14T16:44:49.380Z,5.22
2022-11-14T16:47:54.583Z,5.16
2022-11-14T16:51:14.780Z,5.20
2022-11-14T16:54:20.229Z,5.14
2022-11-14T16:57:24.410Z,5.19
2022-11-14T17:00:27.992Z,5.20
2022-11-14T17:03:33.765Z,5.20
2022-11-14T17:06:39.852Z,5.20
2022-11-14T17:09:43.770Z,5.18
2022-11-14T17:12:47.526Z,5.12
2022-11-14T17:15:51.127Z,5.10
2022-11-14T17:18:55.823Z,5.04
2022-11-14T17:22:00.840Z,4.98
2022-11-14T17:25:04.601Z,4.94
2022-11-14T17:28:08.158Z,4.88
2022-11-14T17:31:12.382Z,4.86
2022-11-14T17:34:16.090Z,4.84
2022-11-14T17:37:21.046Z,4.73
2022-11-14T17:40:24.674Z,4.74
2022-11-14T17:43:30.976Z,4.68
2022-11-14T17:46:36.607Z,4.65
2022-11-14T17:49:40.914Z,4.60
2022-11-14T17:52:46.065Z,4.61
2022-11-14T17:55:57.211Z,4.59
2022-11-14T17:59:00.961Z,4.52
2022-11-14T18:02:04.743Z,4.48
2022-11-14T18:05:09.074Z,4.48
2022-11-14T18:08:14.989Z,4.43
2022-11-14T18:11:20.558Z,4.39
2022-11-14T18:14:24.212Z,4.35
2022-11-14T18:17:28.795Z,4.35
2022-11-14T18:20:32.785Z,4.33
2022-11-14T18:23:38.769Z,4.31
2022-11-14T18:26:42.644Z,4.33
2022-11-14T18:29:46.317Z,4.33
2022-11-14T18:32:49.991Z,4.28
2022-11-14T18:35:58.392Z,4.27
2022-11-14T18:39:03.733Z,4.26
2022-11-14T18:42:07.309Z,4.28
2022-11-14T18:45:11.507Z,4.22
2022-11-14T18:48:15.088Z,4.21
2022-11-14T18:51:21.492Z,4.17
2022-11-14T18:54:26.471Z,4.15
2022-11-14T18:57:30.105Z,4.19
2022-11-14T19:00:33.760Z,4.18
2022-11-14T19:03:37.528Z,4.14
2022-11-14T19:06:42.199Z,4.08
2022-11-14T19:09:47.310Z,4.10
2022-11-14T19:12:50.864Z,4.15
2022-11-14T19:15:54.474Z,4.11
2022-11-14T19:18:58.015Z,4.10
2022-11-14T19:22:01.644Z,4.09
2022-11-14T19:25:07.807Z,4.11
2022-11-14T19:28:11.610Z,4.08
2022-11-14T19:31:15.937Z,4.14
2022-11-14T19:34:19.607Z,4.21
2022-11-14T19:37:23.305Z,4.24
2022-11-14T19:40:29.973Z,4.27
2022-11-14T19:43:33.735Z,4.36
2022-11-14T19:46:37.422Z,4.37
2022-11-14T19:49:41.085Z,4.37
2022-11-14T19:52:44.621Z,4.40
2022-11-14T19:55:49.747Z,4.43
2022-11-14T19:58:56.313Z,4.41
2022-11-14T20:01:59.957Z,4.39
2022-11-14T20:05:03.947Z,4.39
2022-11-14T20:08:07.938Z,4.39
2022-11-14T20:11:13.251Z,4.41
2022-11-14T20:14:17.372Z,4.45
2022-11-14T20:17:21.080Z,4.52
2022-11-14T20:20:24.866Z,4.58
2022-11-14T20:23:28.802Z,4.57
2022-11-14T20:26:34.092Z,4.57
2022-11-14T20:29:37.697Z,4.48
2022-11-14T20:32:41.358Z,4.40
2022-11-14T20:35:45.741Z,4.39
2022-11-14T20:38:50.356Z,4.40
2022-11-14T20:41:55.389Z,4.38
2022-11-14T20:44:59.128Z,4.35
2022-11-14T20:48:02.812Z,4.35
2022-11-14T20:51:09.509Z,4.36
2022-11-14T20:54:13.386Z,4.34
2022-11-14T20:57:18.471Z,4.34
2022-11-14T21:00:22.249Z,4.32
2022-11-14T21:03:26.717Z,4.36
2022-11-14T21:06:30.451Z,4.40
2022-11-14T21:09:34.078Z,4.47
2022-11-14T21:12:39.273Z,4.55
2022-11-14T21:15:42.794Z,4.62
2022-11-14T21:18:48.311Z,4.71
2022-11-14T21:21:52.053Z,4.73
2022-11-14T21:24:55.561Z,4.79
2022-11-14T21:28:00.557Z,4.90
2022-11-14T21:31:14.270Z,4.95
2022-11-14T21:34:18.611Z,5.01
2022-11-14T21:37:22.219Z,5.03
2022-11-14T21:40:25.844Z,5.05
2022-11-14T21:43:31.402Z,5.02
2022-11-14T21:46:35.213Z,5.03
2022-11-14T21:49:38.764Z,4.97
2022-11-14T21:52:42.275Z,4.95
2022-11-14T21:55:46.796Z,4.94
2022-11-14T21:59:12.825Z,4.95
2022-11-14T22:02:33.904Z,4.97
2022-11-14T22:05:37.454Z,5.00
2022-11-14T22:08:41.053Z,5.03
2022-11-14T22:11:44.629Z,5.07
2022-11-14T22:14:49.711Z,5.20
2022-11-14T22:17:53.320Z,5.26
2022-11-14T22:20:59.608Z,5.32
2022-11-14T22:24:03.290Z,5.37
2022-11-14T22:27:06.976Z,5.46
2022-11-14T22:30:13.958Z,5.55
2022-11-14T22:33:17.551Z,5.57
2022-11-14T22:36:23.830Z,5.60
2022-11-14T22:39:27.470Z,5.62
2022-11-14T22:42:31.060Z,5.64
2022-11-14T22:45:42.314Z,5.71
2022-11-14T22:48:47.856Z,5.81
2022-11-14T22:51:51.441Z,5.89
2022-11-14T22:54:54.979Z,5.97
2022-11-14T22:58:00.290Z,5.97
2022-11-14T23:01:13.846Z,6.07
2022-11-14T23:04:18.137Z,6.22
2022-11-14T23:07:21.734Z,6.24
2022-11-14T23:10:25.322Z,6.25
2022-11-14T23:13:29.081Z,6.33
2022-11-14T23:16:35.226Z,6.33
2022-11-14T23:19:38.862Z,6.33
2022-11-14T23:22:42.390Z,6.30
2022-11-14T23:25:46.014Z,6.34
2022-11-14T23:28:50.574Z,6.25
2022-11-14T23:31:55.509Z,6.28
2022-11-14T23:34:59.041Z,6.25
2022-11-14T23:38:05.700Z,6.11
2022-11-14T23:41:15.556Z,6.16
2022-11-14T23:44:19.098Z,6.11
2022-11-14T23:47:24.051Z,6.23
2022-11-14T23:50:27.558Z,6.20
2022-11-14T23:53:32.283Z,6.20
2022-11-14T23:56:36.053Z,6.21
2022-11-14T23:59:39.611Z,6.11
